createdAt,value
2023-04-06T00:02:21.954Z,5.10
2023-04-06T00:04:49.745Z,5.93
2023-04-06T00:07:17.567Z,5.77
2023-04-06T00:09:45.782Z,6.03
2023-04-06T00:12:13.556Z,5.63
2023-04-06T00:14:41.806Z,5.70
2023-04-06T00:17:10.241Z,5.80
2023-04-06T00:19:39.558Z,6.30
2023-04-06T00:22:07.414Z,6.10
2023-04-06T00:24:35.360Z,6.37
2023-04-06T00:27:03.313Z,6.37
2023-04-06T00:29:31.183Z,5.80
2023-04-06T00:31:59.075Z,6.30
2023-04-06T00:34:26.970Z,6.67
2023-04-06T00:36:56.136Z,5.97
2023-04-06T00:39:24.023Z,5.70
2023-04-06T00:41:54.248Z,5.97
2023-04-06T00:44:22.300Z,5.60
2023-04-06T00:46:50.500Z,7.47
2023-04-06T00:49:18.338Z,6.80
2023-04-06T00:51:46.308Z,6.57
2023-04-06T00:54:16.015Z,6.37
2023-04-06T00:56:44.698Z,6.47
2023-04-06T00:59:13.086Z,6.70
2023-04-06T01:01:41.035Z,6.03
2023-04-06T01:04:09.026Z,6.17
2023-04-06T01:06:36.824Z,5.87
2023-04-06T01:09:04.837Z,6.73
2023-04-06T01:11:34.029Z,6.37
2023-04-06T01:14:01.851Z,6.33
2023-04-06T01:16:29.665Z,9.33
2023-04-06T01:18:57.635Z,6.87
2023-04-06T01:21:26.262Z,6.73
2023-04-06T01:23:55.644Z,7.40
2023-04-06T01:26:23.433Z,6.80
2023-04-06T01:28:51.211Z,6.60
2023-04-06T01:31:19.191Z,5.33
2023-04-06T01:33:47.824Z,5.93
2023-04-06T01:36:16.529Z,5.90
2023-04-06T01:38:44.386Z,5.93
2023-04-06T01:41:13.558Z,6.03
2023-04-06T01:43:41.367Z,6.50
2023-04-06T01:46:09.264Z,6.83
2023-04-06T01:48:37.415Z,6.10
2023-04-06T01:51:05.567Z,5.97
2023-04-06T01:53:33.407Z,5.67
2023-04-06T01:56:01.512Z,5.67
2023-04-06T01:58:30.884Z,5.90
2023-04-06T02:00:58.873Z,5.57
2023-04-06T02:03:26.822Z,5.83
2023-04-06T02:05:54.743Z,6.17
2023-04-06T02:08:22.667Z,5.07
2023-04-06T02:10:50.682Z,5.80
2023-04-06T02:13:18.555Z,5.57
2023-04-06T02:15:47.885Z,6.47
2023-04-06T02:18:16.282Z,5.80
2023-04-06T02:20:44.076Z,5.60
2023-04-06T02:23:12.150Z,5.63
2023-04-06T02:25:39.955Z,6.20
2023-04-06T02:28:07.793Z,5.73
2023-04-06T02:30:35.642Z,6.30
2023-04-06T02:33:05.127Z,5.90
2023-04-06T02:35:33.739Z,7.40
2023-04-06T02:38:01.770Z,7.73
2023-04-06T02:40:29.536Z,9.13
2023-04-06T02:42:57.347Z,9.17
2023-04-06T02:45:25.480Z,9.73
2023-04-06T02:47:53.388Z,8.43
2023-04-06T02:50:22.651Z,8.33
2023-04-06T02:52:50.501Z,7.63
2023-04-06T02:55:19.557Z,7.83
2023-04-06T02:57:48.901Z,8.07
2023-04-06T03:00:17.182Z,8.33
2023-04-06T03:02:45.061Z,8.10
2023-04-06T03:05:13.266Z,7.70
2023-04-06T03:07:42.508Z,7.97
2023-04-06T03:10:11.618Z,8.53
2023-04-06T03:12:39.612Z,8.40
2023-04-06T03:15:08.264Z,13.33
2023-04-06T03:17:36.195Z,11.17
2023-04-06T03:20:04.541Z,9.23
2023-04-06T03:22:32.374Z,9.10
2023-04-06T03:25:03.628Z,8.07
2023-04-06T03:27:31.829Z,8.23
2023-04-06T03:29:59.712Z,8.53
2023-04-06T03:32:27.570Z,8.53
2023-04-06T03:34:55.598Z,9.03
2023-04-06T03:37:23.569Z,9.50
2023-04-06T03:39:51.564Z,10.10
2023-04-06T03:42:20.817Z,9.97
2023-04-06T03:44:48.680Z,8.80
2023-04-06T03:47:16.594Z,9.17
2023-04-06T03:49:44.442Z,9.70
2023-04-06T03:52:12.332Z,10.10
2023-04-06T03:54:40.159Z,9.67
2023-04-06T03:57:08.024Z,7.97
2023-04-06T03:59:37.347Z,8.30
2023-04-06T04:02:08.387Z,9.27
2023-04-06T04:04:36.289Z,8.53
2023-04-06T04:07:04.207Z,7.87
2023-04-06T04:09:32.172Z,7.57
2023-04-06T04:12:00.002Z,7.37
2023-04-06T04:14:27.852Z,7.23
2023-04-06T04:16:57.180Z,8.43
2023-04-06T04:19:27.753Z,7.30
2023-04-06T04:21:55.802Z,8.20
2023-04-06T04:24:23.671Z,8.67
2023-04-06T04:26:51.500Z,9.20
2023-04-06T04:29:22.159Z,8.47
2023-04-06T04:31:50.277Z,8.00
2023-04-06T04:34:21.023Z,8.97
2023-04-06T04:36:48.900Z,9.20
2023-04-06T04:39:16.845Z,8.23
2023-04-06T04:41:44.669Z,6.67
2023-04-06T04:44:12.800Z,8.40
2023-04-06T04:46:42.388Z,7.83
2023-04-06T04:49:10.306Z,8.33
2023-04-06T04:51:40.768Z,9.97
2023-04-06T04:54:08.535Z,8.13
2023-04-06T04:56:36.416Z,8.83
2023-04-06T04:59:04.305Z,8.00
2023-04-06T05:01:38.035Z,7.60
2023-04-06T05:04:15.949Z,7.97
2023-04-06T05:06:45.221Z,7.80
2023-04-06T05:09:13.059Z,8.20
2023-04-06T05:11:40.897Z,7.50
2023-04-06T05:14:08.814Z,7.70
2023-04-06T05:16:36.843Z,7.23
2023-04-06T05:19:04.705Z,9.63
2023-04-06T05:21:32.804Z,7.47
2023-04-06T05:24:03.261Z,8.80
2023-04-06T05:26:31.402Z,7.57
2023-04-06T05:28:59.409Z,7.03
2023-04-06T05:31:27.460Z,6.23
2023-04-06T05:33:55.651Z,6.27
2023-04-06T05:36:23.522Z,6.80
2023-04-06T05:38:53.685Z,6.73
2023-04-06T05:41:22.930Z,6.40
2023-04-06T05:43:50.713Z,6.33
2023-04-06T05:46:18.564Z,6.20
2023-04-06T05:48:47.121Z,6.97
2023-04-06T05:51:15.009Z,8.67
2023-04-06T05:53:42.819Z,6.47
2023-04-06T05:56:10.680Z,7.63
2023-04-06T05:58:39.998Z,6.47
2023-04-06T06:01:07.829Z,7.23
2023-04-06T06:03:35.789Z,6.57
2023-04-06T06:06:05.385Z,6.50
2023-04-06T06:08:33.707Z,6.50
2023-04-06T06:11:01.522Z,6.47
2023-04-06T06:13:29.482Z,7.03
2023-04-06T06:15:59.523Z,6.63
2023-04-06T06:18:27.408Z,6.57
2023-04-06T06:20:55.549Z,7.60
2023-04-06T06:23:23.540Z,6.23
2023-04-06T06:25:51.954Z,6.53
2023-04-06T06:28:19.816Z,7.07
2023-04-06T06:30:47.722Z,6.87
2023-04-06T06:33:17.093Z,7.00
2023-04-06T06:35:45.156Z,6.83
2023-04-06T06:38:13.172Z,6.80
2023-04-06T06:40:43.571Z,6.60
2023-04-06T06:43:11.593Z,7.13
2023-04-06T06:45:39.728Z,9.83
2023-04-06T06:48:07.771Z,6.80
2023-04-06T06:50:37.075Z,6.27
2023-04-06T06:53:05.272Z,6.37
2023-04-06T06:55:33.236Z,8.27
2023-04-06T06:58:01.341Z,6.27
2023-04-06T07:00:29.266Z,6.00
2023-04-06T07:02:57.742Z,6.37
2023-04-06T07:05:28.754Z,6.20
2023-04-06T07:07:58.479Z,6.60
2023-04-06T07:10:26.941Z,7.20
2023-04-06T07:12:54.919Z,6.07
2023-04-06T07:15:22.797Z,6.00
2023-04-06T07:17:50.781Z,6.60
2023-04-06T07:20:19.057Z,6.17
2023-04-06T07:22:46.954Z,6.07
2023-04-06T07:25:16.402Z,5.03
2023-04-06T07:27:44.317Z,4.63
2023-04-06T07:30:12.900Z,5.23
2023-04-06T07:32:40.786Z,5.47
2023-04-06T07:35:09.314Z,5.00
2023-04-06T07:37:37.254Z,6.23
2023-04-06T07:40:05.733Z,4.83
2023-04-06T07:42:35.074Z,5.40
2023-04-06T07:45:02.951Z,5.17
2023-04-06T07:47:30.839Z,4.87
2023-04-06T07:49:58.660Z,4.87
2023-04-06T07:52:26.724Z,4.70
2023-04-06T07:54:54.609Z,6.27
2023-04-06T07:57:22.546Z,5.07
2023-04-06T07:59:51.828Z,4.47
2023-04-06T08:02:21.385Z,4.27
2023-04-06T08:04:49.836Z,4.23
2023-04-06T08:07:17.926Z,4.60
2023-04-06T08:09:45.924Z,4.93
2023-04-06T08:12:13.885Z,5.37
2023-04-06T08:14:41.700Z,6.17
2023-04-06T08:17:11.013Z,4.53
2023-04-06T08:19:39.080Z,3.90
2023-04-06T08:22:06.883Z,4.17
2023-04-06T08:24:34.717Z,3.70
2023-04-06T08:27:04.917Z,3.67
2023-04-06T08:29:32.750Z,4.07
2023-04-06T08:32:00.687Z,4.23
2023-04-06T08:34:30.065Z,3.70
2023-04-06T08:36:57.868Z,3.70
2023-04-06T08:39:26.650Z,3.53
2023-04-06T08:41:57.942Z,3.20
2023-04-06T08:44:26.403Z,3.43
2023-04-06T08:46:54.991Z,2.80
2023-04-06T08:49:23.603Z,2.93
2023-04-06T08:51:53.237Z,2.93
2023-04-06T08:54:21.102Z,3.20
2023-04-06T08:56:50.447Z,2.67
2023-04-06T08:59:18.897Z,2.73
2023-04-06T09:01:47.904Z,3.10
2023-04-06T09:04:16.462Z,2.70
2023-04-06T09:06:45.231Z,2.93
2023-04-06T09:09:14.791Z,2.70
2023-04-06T09:11:47.766Z,2.50
2023-04-06T09:14:16.499Z,3.07
2023-04-06T09:16:46.721Z,3.37
2023-04-06T09:19:14.997Z,3.43
2023-04-06T09:21:42.859Z,2.87
2023-04-06T09:24:11.640Z,3.80
2023-04-06T09:26:50.501Z,3.20
2023-04-06T09:29:27.078Z,2.30
2023-04-06T09:32:03.579Z,2.93
2023-04-06T09:34:31.508Z,3.20
2023-04-06T09:36:59.530Z,2.80
2023-04-06T09:39:27.749Z,2.93
2023-04-06T09:41:57.484Z,2.70
2023-04-06T09:44:26.946Z,3.40
2023-04-06T09:47:00.501Z,2.50
2023-04-06T09:49:30.115Z,2.60
2023-04-06T09:52:01.589Z,2.60
2023-04-06T09:54:31.952Z,3.03
2023-04-06T09:57:10.415Z,2.53
2023-04-06T09:59:46.668Z,2.70
2023-04-06T10:02:25.976Z,3.27
2023-04-06T10:04:59.216Z,2.50
2023-04-06T10:07:28.816Z,2.60
2023-04-06T10:09:57.990Z,2.77
2023-04-06T10:12:27.215Z,2.37
2023-04-06T10:14:56.313Z,3.13
2023-04-06T10:17:25.649Z,2.23
2023-04-06T10:19:57.262Z,3.53
2023-04-06T10:22:32.840Z,2.77
2023-04-06T10:25:00.814Z,3.90
2023-04-06T10:27:34.744Z,4.40
2023-04-06T10:30:07.103Z,2.40
2023-04-06T10:32:36.891Z,2.20
2023-04-06T10:35:09.582Z,2.93
2023-04-06T10:37:52.491Z,2.60
2023-04-06T10:40:22.149Z,2.97
2023-04-06T10:42:51.577Z,3.00
2023-04-06T10:45:23.569Z,3.83
2023-04-06T10:47:51.876Z,3.17
2023-04-06T10:50:20.140Z,3.03
2023-04-06T10:52:48.841Z,4.10
2023-04-06T10:55:17.585Z,4.50
2023-04-06T10:57:48.474Z,2.93
2023-04-06T11:00:19.039Z,2.90
2023-04-06T11:02:47.272Z,2.80
2023-04-06T11:05:15.164Z,2.40
2023-04-06T11:07:43.539Z,2.70
2023-04-06T11:10:19.335Z,2.57
2023-04-06T11:12:55.409Z,2.70
2023-04-06T11:15:24.873Z,4.80
2023-04-06T11:17:52.818Z,2.47
2023-04-06T11:20:21.557Z,2.50
2023-04-06T11:22:53.588Z,2.83
2023-04-06T11:25:21.817Z,2.50
2023-04-06T11:27:50.311Z,2.43
2023-04-06T11:30:18.552Z,2.77
2023-04-06T11:32:48.134Z,2.90
2023-04-06T11:35:22.408Z,3.40
2023-04-06T11:37:51.137Z,2.57
2023-04-06T11:40:23.413Z,2.70
2023-04-06T11:42:55.538Z,2.73
2023-04-06T11:45:24.197Z,2.90
2023-04-06T11:48:00.591Z,3.87
2023-04-06T11:50:34.572Z,3.10
2023-04-06T11:53:04.012Z,3.23
2023-04-06T11:55:39.733Z,2.90
2023-04-06T11:58:08.123Z,7.77
2023-04-06T12:00:38.057Z,2.70
2023-04-06T12:03:07.496Z,2.60
2023-04-06T12:05:36.145Z,2.40
2023-04-06T12:08:04.211Z,11.73
2023-04-06T12:10:32.350Z,2.60
2023-04-06T12:13:00.205Z,2.97
2023-04-06T12:15:28.249Z,2.60
2023-04-06T12:17:56.109Z,2.77
2023-04-06T12:20:27.083Z,4.57
2023-04-06T12:22:55.465Z,2.67
2023-04-06T12:25:23.472Z,2.50
2023-04-06T12:27:51.504Z,3.33
2023-04-06T12:30:19.650Z,3.57
2023-04-06T12:32:50.388Z,2.67
2023-04-06T12:35:19.281Z,3.07
2023-04-06T12:37:48.465Z,2.27
2023-04-06T12:40:16.922Z,2.87
2023-04-06T12:42:46.663Z,2.87
2023-04-06T12:45:14.557Z,2.20
2023-04-06T12:47:42.566Z,2.63
2023-04-06T12:50:11.268Z,4.17
2023-04-06T12:52:39.206Z,3.30
2023-04-06T12:55:09.980Z,2.97
2023-04-06T12:57:38.110Z,2.83
2023-04-06T13:00:09.193Z,2.70
2023-04-06T13:02:37.648Z,3.00
2023-04-06T13:05:06.534Z,3.07
2023-04-06T13:07:34.563Z,2.67
2023-04-06T13:10:02.802Z,2.57
2023-04-06T13:12:35.659Z,2.70
2023-04-06T13:15:03.604Z,3.10
2023-04-06T13:17:31.915Z,3.30
2023-04-06T13:20:00.251Z,3.67
2023-04-06T13:22:28.166Z,2.90
2023-04-06T13:24:56.664Z,2.67
2023-04-06T13:27:24.561Z,3.27
2023-04-06T13:29:53.886Z,3.57
2023-04-06T13:32:21.839Z,3.33
2023-04-06T13:34:50.096Z,2.83
2023-04-06T13:37:18.217Z,2.50
2023-04-06T13:39:48.307Z,2.97
2023-04-06T13:42:16.070Z,2.73
2023-04-06T13:44:43.951Z,2.50
2023-04-06T13:47:13.398Z,4.23
2023-04-06T13:49:41.681Z,2.70
2023-04-06T13:52:10.956Z,2.80
2023-04-06T13:54:38.738Z,2.90
2023-04-06T13:57:08.475Z,2.80
2023-04-06T13:59:37.078Z,3.00
2023-04-06T14:02:05.658Z,6.70
2023-04-06T14:04:35.473Z,2.53
2023-04-06T14:07:04.191Z,3.53
2023-04-06T14:09:32.281Z,2.80
2023-04-06T14:12:00.223Z,2.97
2023-04-06T14:14:28.197Z,3.20
2023-04-06T14:16:56.559Z,2.90
2023-04-06T14:19:24.269Z,2.63
2023-04-06T14:21:53.425Z,2.40
2023-04-06T14:24:22.451Z,2.67
2023-04-06T14:26:50.127Z,2.67
2023-04-06T14:29:18.651Z,3.67
2023-04-06T14:31:47.547Z,2.37
2023-04-06T14:34:16.328Z,2.57
2023-04-06T14:36:44.287Z,4.13
2023-04-06T14:39:13.385Z,7.90
2023-04-06T14:41:41.805Z,2.20
2023-04-06T14:44:13.095Z,3.87
2023-04-06T14:46:41.195Z,3.23
2023-04-06T14:49:09.854Z,2.77
2023-04-06T14:51:37.656Z,2.50
2023-04-06T14:54:05.700Z,2.50
2023-04-06T14:56:34.821Z,2.20
2023-04-06T14:59:04.166Z,2.10
2023-04-06T15:01:36.512Z,2.77
2023-04-06T15:04:04.996Z,2.20
2023-04-06T15:06:32.923Z,2.10
2023-04-06T15:09:01.512Z,2.60
2023-04-06T15:11:29.232Z,3.53
2023-04-06T15:13:58.261Z,2.47
2023-04-06T15:16:26.468Z,2.50
2023-04-06T15:18:54.285Z,2.63
2023-04-06T15:21:22.286Z,3.40
2023-04-06T15:23:53.208Z,3.60
2023-04-06T15:26:21.138Z,3.00
2023-04-06T15:28:49.102Z,5.77
2023-04-06T15:31:33.539Z,4.07
2023-04-06T15:34:05.021Z,3.53
2023-04-06T15:36:33.079Z,4.60
2023-04-06T15:39:01.643Z,2.47
2023-04-06T15:41:29.526Z,2.80
2023-04-06T15:43:57.423Z,3.40
2023-04-06T15:46:28.183Z,3.37
2023-04-06T15:48:57.008Z,3.00
2023-04-06T15:51:25.101Z,3.07
2023-04-06T15:53:52.853Z,2.73
2023-04-06T15:56:20.997Z,2.67
2023-04-06T15:58:49.594Z,2.47
2023-04-06T16:01:19.577Z,7.83
2023-04-06T16:03:48.851Z,3.10
2023-04-06T16:06:16.617Z,3.33
2023-04-06T16:08:45.194Z,2.80
2023-04-06T16:11:13.907Z,2.80
2023-04-06T16:13:45.093Z,9.63
2023-04-06T16:16:15.863Z,3.80
2023-04-06T16:18:43.659Z,3.60
2023-04-06T16:21:17.673Z,5.70
2023-04-06T16:23:46.293Z,3.53
2023-04-06T16:26:14.988Z,3.07
2023-04-06T16:28:42.836Z,2.73
2023-04-06T16:31:18.928Z,3.23
2023-04-06T16:33:47.202Z,2.73
2023-04-06T16:36:23.494Z,2.50
2023-04-06T16:38:51.434Z,2.90
2023-04-06T16:41:19.300Z,3.17
2023-04-06T16:43:47.559Z,3.00
2023-04-06T16:46:15.721Z,3.00
2023-04-06T16:48:43.741Z,3.20
2023-04-06T16:51:11.780Z,3.27
2023-04-06T16:53:40.978Z,2.80
2023-04-06T16:58:39.548Z,2.73
2023-04-06T17:01:07.561Z,3.73
2023-04-06T17:03:35.936Z,2.77
2023-04-06T17:06:03.699Z,2.90
2023-04-06T17:08:32.749Z,2.87
2023-04-06T17:11:04.499Z,2.67
2023-04-06T17:13:32.434Z,3.53
2023-04-06T17:16:00.999Z,3.73
2023-04-06T17:18:34.736Z,2.80
2023-04-06T17:21:05.996Z,2.60
2023-04-06T17:23:34.013Z,3.30
2023-04-06T17:26:06.507Z,2.87
2023-04-06T17:28:35.595Z,7.60
2023-04-06T17:31:03.584Z,5.00
2023-04-06T17:33:32.577Z,2.80
2023-04-06T17:36:00.334Z,3.30
2023-04-06T17:38:28.209Z,3.90
2023-04-06T17:40:56.004Z,2.90
2023-04-06T17:43:25.261Z,3.07
2023-04-06T17:45:53.080Z,11.53
2023-04-06T17:48:21.121Z,2.93
2023-04-06T17:50:49.194Z,5.23
2023-04-06T17:53:20.213Z,2.60
2023-04-06T17:55:48.340Z,2.80
2023-04-06T17:58:16.835Z,2.40
2023-04-06T18:00:46.038Z,3.10
2023-04-06T18:03:13.868Z,2.50
2023-04-06T18:05:41.919Z,3.87
2023-04-06T18:08:09.734Z,2.97
2023-04-06T18:10:39.550Z,2.73
2023-04-06T18:13:08.050Z,2.87
2023-04-06T18:15:36.444Z,3.33
2023-04-06T18:18:07.459Z,3.43
2023-04-06T18:20:40.380Z,3.67
2023-04-06T18:23:08.202Z,3.53
2023-04-06T18:25:39.458Z,3.47
2023-04-06T18:28:07.558Z,3.40
2023-04-06T18:30:35.717Z,3.10
2023-04-06T18:33:05.123Z,4.17
2023-04-06T18:35:35.816Z,3.27
2023-04-06T18:38:03.687Z,3.63
2023-04-06T18:40:32.903Z,4.53
2023-04-06T18:43:01.086Z,3.63
2023-04-06T18:45:29.066Z,3.73
2023-04-06T18:47:57.946Z,3.27
2023-04-06T18:50:27.318Z,3.53
2023-04-06T18:52:55.268Z,4.00
2023-04-06T18:55:23.222Z,4.50
2023-04-06T18:57:51.155Z,5.70
2023-04-06T19:00:19.681Z,4.13
2023-04-06T19:02:47.571Z,3.90
2023-04-06T19:05:15.735Z,6.00
2023-04-06T19:07:47.991Z,4.33
2023-04-06T19:10:15.874Z,3.93
2023-04-06T19:12:43.565Z,9.27
2023-04-06T19:15:12.780Z,4.30
2023-04-06T19:17:40.624Z,4.03
2023-04-06T19:20:09.679Z,4.87
2023-04-06T19:22:37.787Z,4.00
2023-04-06T19:25:08.781Z,4.80
2023-04-06T19:27:36.653Z,4.73
2023-04-06T19:30:04.767Z,4.67
2023-04-06T19:32:32.678Z,5.20
2023-04-06T19:35:01.527Z,5.57
2023-04-06T19:37:29.557Z,4.93
2023-04-06T19:39:57.383Z,5.07
2023-04-06T19:42:26.550Z,4.63
2023-04-06T19:44:55.027Z,5.57
2023-04-06T19:47:23.182Z,4.83
2023-04-06T19:49:51.005Z,5.27
2023-04-06T19:52:19.718Z,4.57
2023-04-06T19:54:47.685Z,5.00
2023-04-06T19:57:18.886Z,4.80
2023-04-06T19:59:48.086Z,4.60
2023-04-06T20:02:16.034Z,5.23
2023-04-06T20:04:43.894Z,5.37
2023-04-06T20:07:11.821Z,5.17
2023-04-06T20:09:39.566Z,6.40
2023-04-06T20:12:07.588Z,11.03
2023-04-06T20:14:36.264Z,5.53
2023-04-06T20:17:05.690Z,5.47
2023-04-06T20:19:33.651Z,13.50
2023-04-06T20:22:03.617Z,6.33
2023-04-06T20:24:31.634Z,5.50
2023-04-06T20:26:59.458Z,5.60
2023-04-06T20:29:27.679Z,5.53
2023-04-06T20:31:55.653Z,5.40
2023-04-06T20:34:28.779Z,5.37
2023-04-06T20:36:56.713Z,5.53
2023-04-06T20:39:25.081Z,5.53
2023-04-06T20:41:53.280Z,5.43
2023-04-06T20:44:21.823Z,5.07
2023-04-06T20:46:50.062Z,5.53
2023-04-06T20:49:18.470Z,5.93
2023-04-06T20:51:47.748Z,5.67
2023-04-06T20:54:16.682Z,6.73
2023-04-06T20:56:44.940Z,5.57
2023-04-06T20:59:12.907Z,7.87
2023-04-06T21:01:41.154Z,5.20
2023-04-06T21:04:09.056Z,5.50
2023-04-06T21:06:36.997Z,5.33
2023-04-06T21:09:06.265Z,5.97
2023-04-06T21:11:34.097Z,5.20
2023-04-06T21:14:01.843Z,4.90
2023-04-06T21:16:29.603Z,4.93
2023-04-06T21:18:57.349Z,4.30
2023-04-06T21:21:25.200Z,5.57
2023-04-06T21:23:53.900Z,5.73
2023-04-06T21:26:23.036Z,5.73
2023-04-06T21:28:50.794Z,6.17
2023-04-06T21:31:19.947Z,5.63
2023-04-06T21:33:48.686Z,6.60
2023-04-06T21:36:16.465Z,6.23
2023-04-06T21:38:44.336Z,6.10
2023-04-06T21:41:12.118Z,5.87
2023-04-06T21:43:41.187Z,7.10
2023-04-06T21:46:08.928Z,7.30
2023-04-06T21:48:36.680Z,5.87
2023-04-06T21:51:04.752Z,7.70
2023-04-06T21:53:32.483Z,6.73
2023-04-06T21:56:00.912Z,6.37
2023-04-06T21:58:28.642Z,6.83
2023-04-06T22:00:58.523Z,6.30
2023-04-06T22:03:26.473Z,6.73
2023-04-06T22:05:54.538Z,6.70
2023-04-06T22:08:33.624Z,6.50
2023-04-06T22:11:07.986Z,8.60
2023-04-06T22:13:36.074Z,6.77
2023-04-06T22:16:05.926Z,6.60
2023-04-06T22:18:34.224Z,7.07
2023-04-06T22:21:03.332Z,7.30
2023-04-06T22:23:31.835Z,7.00
2023-04-06T22:25:59.758Z,6.57
2023-04-06T22:28:27.634Z,7.30
2023-04-06T22:30:55.406Z,7.43
2023-04-06T22:33:24.605Z,6.40
2023-04-06T22:35:52.495Z,6.70
2023-04-06T22:38:20.443Z,6.50
2023-04-06T22:40:48.245Z,8.47
2023-04-06T22:43:16.238Z,6.83
2023-04-06T22:45:44.105Z,7.53
2023-04-06T22:48:11.955Z,7.30
2023-04-06T22:50:41.441Z,7.40
2023-04-06T22:53:09.185Z,7.37
2023-04-06T22:55:36.937Z,8.50
2023-04-06T22:58:04.797Z,10.10
2023-04-06T23:00:32.570Z,8.07
2023-04-06T23:03:01.529Z,9.50
2023-04-06T23:05:29.542Z,8.70
2023-04-06T23:07:58.758Z,8.50
2023-04-06T23:10:26.484Z,8.40
2023-04-06T23:12:54.292Z,8.07
2023-04-06T23:15:21.997Z,9.20
2023-04-06T23:17:49.796Z,8.37
2023-04-06T23:20:17.737Z,8.13
2023-04-06T23:22:45.601Z,10.07
2023-04-06T23:25:14.830Z,8.60
2023-04-06T23:27:42.538Z,9.00
2023-04-06T23:30:10.923Z,9.63
2023-04-06T23:32:38.987Z,8.43
2023-04-06T23:35:07.822Z,9.77
2023-04-06T23:37:35.645Z,8.83
2023-04-06T23:40:04.548Z,9.03
2023-04-06T23:42:40.077Z,9.03
2023-04-06T23:45:09.074Z,8.70
2023-04-06T23:47:36.852Z,8.37
2023-04-06T23:50:05.227Z,8.47
2023-04-06T23:52:32.929Z,9.20
2023-04-06T23:55:00.808Z,9.30
2023-04-06T23:57:28.650Z,8.83
